DLH9L LPPT-LPPD
Flight info
| Callsign | DLH9L |
|---|---|
| Flight time | 1h 5m |
| Altitude | 37000 |
| Route | ZIFOG1N ZIFOG DCT TABAX DCT KOMUT/M077F370 DCT 38N020W DCT BEKUN DCT OMOBI OMOBI1C |
| Aircraft | A320/M-SDE3FGHIRWY/LB1 |
Departure
| Time | 2026-05-07 12:59 |
|---|---|
| Airport | Lisbon Humberto Delgado Airport (LPPT) |
Arrival
| Time | 2026-05-07 14:04 |
|---|---|
| Airport | João Paulo II Airport (LPPD) |
| Time | Latitude | Longitude | Altitude | Speed | Heading |
|---|---|---|---|---|---|
| 2026-05-07 12:12 | 38.77298 | -9.13158 | 337 ft | 0 kts | 78° |
| 2026-05-07 12:51 | 38.77296 | -9.13171 | 333 ft | 4 kts | 78° |
| 2026-05-07 12:51 | 38.77290 | -9.13204 | 334 ft | 4 kts | 78° |
| 2026-05-07 12:51 | 38.77285 | -9.13229 | 335 ft | 4 kts | 51° |
| 2026-05-07 12:51 | 38.77266 | -9.13242 | 336 ft | 4 kts | 354° |
| 2026-05-07 12:52 | 38.77269 | -9.13244 | 335 ft | 4 kts | 348° |
| 2026-05-07 12:52 | 38.77280 | -9.13247 | 334 ft | 0 kts | 348° |
| 2026-05-07 12:54 | 38.77322 | -9.13273 | 334 ft | 13 kts | 309° |
| 2026-05-07 12:55 | 38.77314 | -9.13394 | 346 ft | 15 kts | 258° |
| 2026-05-07 12:55 | 38.77290 | -9.13533 | 353 ft | 16 kts | 258° |
| 2026-05-07 12:55 | 38.77268 | -9.13666 | 351 ft | 15 kts | 258° |
| 2026-05-07 12:55 | 38.77248 | -9.13799 | 360 ft | 15 kts | 259° |
| 2026-05-07 12:56 | 38.77165 | -9.13882 | 357 ft | 18 kts | 203° |
| 2026-05-07 12:56 | 38.77021 | -9.13958 | 351 ft | 25 kts | 203° |
| 2026-05-07 12:56 | 38.76851 | -9.14049 | 350 ft | 29 kts | 203° |
| 2026-05-07 12:56 | 38.76666 | -9.14148 | 344 ft | 23 kts | 202° |
| 2026-05-07 12:57 | 38.76593 | -9.14231 | 338 ft | 12 kts | 275° |
| 2026-05-07 12:57 | 38.76604 | -9.14270 | 336 ft | 0 kts | 292° |
| 2026-05-07 12:58 | 38.76627 | -9.14340 | 334 ft | 17 kts | 294° |
| 2026-05-07 12:58 | 38.76734 | -9.14340 | 335 ft | 21 kts | 24° |
| 2026-05-07 12:58 | 38.77058 | -9.14168 | 355 ft | 84 kts | 22° |
| 2026-05-07 12:58 | 38.77776 | -9.13787 | 364 ft | 140 kts | 22° |
| 2026-05-07 12:59 | 38.78816 | -9.13243 | 447 ft | 178 kts | 22° |
| 2026-05-07 12:59 | 38.79947 | -9.12641 | 1205 ft | 174 kts | 18° |
| 2026-05-07 12:59 | 38.81065 | -9.12016 | 1863 ft | 180 kts | 22° |
| 2026-05-07 12:59 | 38.82245 | -9.11190 | 2227 ft | 207 kts | 25° |
| 2026-05-07 13:00 | 38.83557 | -9.10189 | 2661 ft | 230 kts | 27° |
| 2026-05-07 13:00 | 38.84986 | -9.09105 | 3260 ft | 247 kts | 27° |
| 2026-05-07 13:00 | 38.86524 | -9.07932 | 3836 ft | 265 kts | 31° |
| 2026-05-07 13:00 | 38.88136 | -9.06712 | 4659 ft | 273 kts | 25° |
| 2026-05-07 13:01 | 38.89947 | -9.06025 | 5451 ft | 279 kts | 5° |
| 2026-05-07 13:01 | 38.91893 | -9.06151 | 6325 ft | 284 kts | 350° |
| 2026-05-07 13:01 | 38.93857 | -9.06594 | 7153 ft | 289 kts | 350° |
| 2026-05-07 13:01 | 38.95851 | -9.07027 | 8038 ft | 291 kts | 350° |
| 2026-05-07 13:02 | 38.97857 | -9.07463 | 8928 ft | 294 kts | 347° |
| 2026-05-07 13:02 | 38.99752 | -9.08462 | 9658 ft | 299 kts | 325° |
| 2026-05-07 13:02 | 39.01243 | -9.10292 | 9883 ft | 296 kts | 302° |
| 2026-05-07 13:02 | 39.02097 | -9.12737 | 9940 ft | 314 kts | 281° |
| 2026-05-07 13:03 | 39.02314 | -9.15568 | 9937 ft | 321 kts | 269° |
| 2026-05-07 13:03 | 39.02427 | -9.18449 | 9940 ft | 324 kts | 271° |
| 2026-05-07 13:03 | 39.02545 | -9.21298 | 10017 ft | 328 kts | 271° |
| 2026-05-07 13:03 | 39.02672 | -9.24244 | 10832 ft | 330 kts | 272° |
| 2026-05-07 13:04 | 39.02806 | -9.27197 | 11665 ft | 332 kts | 272° |
| 2026-05-07 13:04 | 39.02944 | -9.30168 | 12498 ft | 334 kts | 272° |
| 2026-05-07 13:04 | 39.03083 | -9.33170 | 13278 ft | 338 kts | 273° |
| 2026-05-07 13:04 | 39.03220 | -9.36203 | 13998 ft | 341 kts | 272° |
| 2026-05-07 13:05 | 39.03354 | -9.39261 | 14674 ft | 343 kts | 273° |
| 2026-05-07 13:05 | 39.03488 | -9.42337 | 15346 ft | 346 kts | 273° |
| 2026-05-07 13:05 | 39.03622 | -9.45431 | 16074 ft | 347 kts | 273° |
| 2026-05-07 13:05 | 39.03754 | -9.48508 | 16703 ft | 351 kts | 273° |
| 2026-05-07 13:06 | 39.04115 | -9.57145 | 18477 ft | 359 kts | 273° |
| 2026-05-07 13:06 | 39.01785 | -9.69379 | 20727 ft | 371 kts | 230° |
| 2026-05-07 13:06 | 38.93422 | -9.77498 | 22856 ft | 382 kts | 219° |
| 2026-05-07 13:06 | 38.84779 | -9.85589 | 24779 ft | 387 kts | 219° |
| 2026-05-07 13:07 | 38.75957 | -9.93702 | 26436 ft | 394 kts | 219° |
| 2026-05-07 13:07 | 38.69546 | -10.04546 | 27912 ft | 390 kts | 258° |
| 2026-05-07 13:07 | 38.69342 | -10.18502 | 29410 ft | 396 kts | 270° |
| 2026-05-07 13:07 | 38.69411 | -10.32503 | 30674 ft | 402 kts | 270° |
| 2026-05-07 13:08 | 38.69521 | -10.46850 | 31989 ft | 401 kts | 270° |
| 2026-05-07 13:08 | 38.69606 | -10.60908 | 33802 ft | 389 kts | 269° |
| 2026-05-07 13:08 | 38.68414 | -10.74462 | 35142 ft | 382 kts | 258° |
| 2026-05-07 13:08 | 38.66298 | -10.87753 | 36000 ft | 381 kts | 259° |
| 2026-05-07 13:09 | 38.64187 | -11.00752 | 35934 ft | 370 kts | 257° |
| 2026-05-07 13:09 | 38.62056 | -11.13642 | 36009 ft | 371 kts | 257° |
| 2026-05-07 13:09 | 38.57804 | -11.39260 | 35979 ft | 371 kts | 257° |
| 2026-05-07 13:10 | 38.53450 | -11.65071 | 35947 ft | 371 kts | 257° |
| 2026-05-07 13:10 | 38.49036 | -11.90828 | 35968 ft | 372 kts | 257° |
| 2026-05-07 13:11 | 38.44568 | -12.16596 | 35978 ft | 372 kts | 256° |
| 2026-05-07 13:11 | 38.40067 | -12.42159 | 35992 ft | 372 kts | 255° |
| 2026-05-07 13:12 | 38.35483 | -12.67862 | 35985 ft | 372 kts | 255° |
| 2026-05-07 13:12 | 38.30846 | -12.93579 | 35980 ft | 373 kts | 255° |
| 2026-05-07 13:13 | 38.26117 | -13.19342 | 35996 ft | 374 kts | 254° |
| 2026-05-07 13:13 | 38.21346 | -13.45035 | 35988 ft | 373 kts | 254° |
| 2026-05-07 13:14 | 38.16544 | -13.70524 | 35989 ft | 373 kts | 253° |
| 2026-05-07 13:14 | 38.13112 | -13.96625 | 35979 ft | 376 kts | 257° |
| 2026-05-07 13:15 | 38.09863 | -14.22879 | 35991 ft | 377 kts | 256° |
| 2026-05-07 13:15 | 38.06536 | -14.49299 | 35980 ft | 380 kts | 256° |
| 2026-05-07 13:16 | 38.03169 | -14.75663 | 35978 ft | 382 kts | 256° |
| 2026-05-07 13:16 | 38.00021 | -15.02381 | 35966 ft | 391 kts | 267° |
| 2026-05-07 13:17 | 38.00597 | -15.29920 | 35977 ft | 391 kts | 266° |
| 2026-05-07 13:17 | 38.01074 | -15.57530 | 35983 ft | 392 kts | 265° |
| 2026-05-07 13:18 | 38.01499 | -15.84958 | 35998 ft | 392 kts | 265° |
| 2026-05-07 13:18 | 38.01837 | -16.12563 | 35955 ft | 390 kts | 264° |
| 2026-05-07 13:19 | 38.02140 | -16.40047 | 35972 ft | 391 kts | 264° |
| 2026-05-07 13:19 | 38.02363 | -16.67680 | 35960 ft | 393 kts | 264° |
| 2026-05-07 13:20 | 38.02532 | -16.95294 | 35948 ft | 395 kts | 264° |
| 2026-05-07 13:20 | 38.02626 | -17.23233 | 35934 ft | 397 kts | 264° |
| 2026-05-07 13:21 | 38.02654 | -17.47691 | 35934 ft | 399 kts | 265° |
| 2026-05-07 13:21 | 38.02648 | -17.54741 | 35942 ft | 400 kts | 265° |
| 2026-05-07 13:22 | 38.02633 | -17.66023 | 35937 ft | 402 kts | 265° |
| 2026-05-07 13:22 | 38.02576 | -17.94240 | 35920 ft | 403 kts | 265° |
| 2026-05-07 13:23 | 38.02419 | -18.22750 | 35925 ft | 405 kts | 266° |
| 2026-05-07 13:23 | 38.02218 | -18.51334 | 35925 ft | 405 kts | 266° |
| 2026-05-07 13:24 | 38.01937 | -18.79888 | 35906 ft | 405 kts | 266° |
| 2026-05-07 13:24 | 38.01583 | -19.08293 | 35905 ft | 406 kts | 266° |
| 2026-05-07 13:25 | 38.01177 | -19.36938 | 35901 ft | 406 kts | 266° |
| 2026-05-07 13:25 | 38.00679 | -19.65509 | 35890 ft | 404 kts | 267° |
| 2026-05-07 13:26 | 38.00122 | -19.93914 | 35873 ft | 402 kts | 268° |
| 2026-05-07 13:26 | 37.99940 | -20.22083 | 35868 ft | 402 kts | 269° |
| 2026-05-07 13:27 | 37.99782 | -20.50356 | 35855 ft | 400 kts | 269° |
| 2026-05-07 13:27 | 37.99567 | -20.78557 | 35847 ft | 399 kts | 269° |
| 2026-05-07 13:28 | 37.99283 | -21.06571 | 35825 ft | 396 kts | 270° |
| 2026-05-07 13:28 | 37.98925 | -21.34453 | 35824 ft | 394 kts | 270° |
| 2026-05-07 13:29 | 37.98530 | -21.61917 | 35816 ft | 390 kts | 271° |
| 2026-05-07 13:29 | 37.98049 | -21.89396 | 35807 ft | 388 kts | 271° |
| 2026-05-07 13:30 | 37.97527 | -22.16657 | 35794 ft | 386 kts | 271° |
| 2026-05-07 13:30 | 37.96931 | -22.43806 | 35777 ft | 385 kts | 271° |
| 2026-05-07 13:31 | 37.96285 | -22.70625 | 35788 ft | 382 kts | 271° |
| 2026-05-07 13:31 | 37.95956 | -22.83363 | 35779 ft | 381 kts | 271° |
| 2026-05-07 13:32 | 37.95782 | -22.90055 | 35811 ft | 380 kts | 271° |
| 2026-05-07 13:32 | 37.95603 | -22.96746 | 35799 ft | 380 kts | 271° |
| 2026-05-07 13:33 | 37.95418 | -23.03387 | 35797 ft | 380 kts | 271° |
| 2026-05-07 13:33 | 37.95233 | -23.10079 | 35793 ft | 380 kts | 271° |
| 2026-05-07 13:34 | 37.94937 | -23.20096 | 35788 ft | 379 kts | 271° |
| 2026-05-07 13:35 | 37.94729 | -23.26754 | 35795 ft | 378 kts | 271° |
| 2026-05-07 13:35 | 37.94527 | -23.33360 | 35795 ft | 378 kts | 271° |
| 2026-05-07 13:36 | 37.94329 | -23.40007 | 35804 ft | 378 kts | 271° |
| 2026-05-07 13:36 | 37.94124 | -23.46653 | 35791 ft | 377 kts | 271° |
| 2026-05-07 13:37 | 37.93913 | -23.53289 | 35712 ft | 378 kts | 271° |
| 2026-05-07 13:37 | 37.93806 | -23.56606 | 35466 ft | 376 kts | 271° |
| 2026-05-07 13:37 | 37.93699 | -23.59863 | 35226 ft | 373 kts | 272° |
| 2026-05-07 13:37 | 37.93590 | -23.63127 | 34993 ft | 369 kts | 272° |
| 2026-05-07 13:38 | 37.93476 | -23.66358 | 34755 ft | 365 kts | 272° |
| 2026-05-07 13:38 | 37.93365 | -23.69557 | 34519 ft | 361 kts | 272° |
| 2026-05-07 13:38 | 37.93255 | -23.72711 | 34228 ft | 355 kts | 272° |
| 2026-05-07 13:38 | 37.93145 | -23.75812 | 33800 ft | 350 kts | 274° |
| 2026-05-07 13:39 | 37.93038 | -23.78872 | 33345 ft | 345 kts | 274° |
| 2026-05-07 13:39 | 37.92935 | -23.81838 | 32940 ft | 339 kts | 274° |
| 2026-05-07 13:39 | 37.92833 | -23.84793 | 32530 ft | 333 kts | 274° |
| 2026-05-07 13:39 | 37.92732 | -23.87696 | 32136 ft | 327 kts | 274° |
| 2026-05-07 13:40 | 37.92630 | -23.90554 | 31756 ft | 322 kts | 273° |
| 2026-05-07 13:40 | 37.92528 | -23.93359 | 31372 ft | 316 kts | 274° |
| 2026-05-07 13:40 | 37.92427 | -23.96117 | 31003 ft | 311 kts | 274° |
| 2026-05-07 13:40 | 37.92327 | -23.98827 | 30639 ft | 305 kts | 274° |
| 2026-05-07 13:41 | 37.92230 | -24.01490 | 30292 ft | 300 kts | 274° |
| 2026-05-07 13:41 | 37.92135 | -24.04072 | 29959 ft | 295 kts | 274° |
| 2026-05-07 13:41 | 37.92039 | -24.06638 | 29586 ft | 289 kts | 274° |
| 2026-05-07 13:41 | 37.91944 | -24.09152 | 29301 ft | 282 kts | 273° |
| 2026-05-07 13:42 | 37.91851 | -24.11610 | 28953 ft | 277 kts | 273° |
| 2026-05-07 13:42 | 37.91761 | -24.14039 | 28649 ft | 276 kts | 273° |
| 2026-05-07 13:42 | 37.91672 | -24.16458 | 28343 ft | 275 kts | 273° |
| 2026-05-07 13:42 | 37.91585 | -24.18872 | 28043 ft | 274 kts | 273° |
| 2026-05-07 13:43 | 37.91498 | -24.21244 | 27742 ft | 273 kts | 273° |
| 2026-05-07 13:43 | 37.91408 | -24.23643 | 27438 ft | 272 kts | 273° |
| 2026-05-07 13:43 | 37.91318 | -24.26037 | 27129 ft | 272 kts | 273° |
| 2026-05-07 13:43 | 37.91225 | -24.28420 | 26816 ft | 271 kts | 272° |
| 2026-05-07 13:44 | 37.91132 | -24.30801 | 26505 ft | 270 kts | 272° |
| 2026-05-07 13:44 | 37.91041 | -24.33172 | 26187 ft | 269 kts | 272° |
| 2026-05-07 13:44 | 37.90947 | -24.35539 | 25857 ft | 269 kts | 272° |
| 2026-05-07 13:44 | 37.90852 | -24.37895 | 25533 ft | 268 kts | 272° |
| 2026-05-07 13:45 | 37.90757 | -24.40245 | 25204 ft | 266 kts | 273° |
| 2026-05-07 13:45 | 37.90665 | -24.42536 | 24882 ft | 263 kts | 273° |
| 2026-05-07 13:45 | 37.90571 | -24.44848 | 24552 ft | 262 kts | 272° |
| 2026-05-07 13:45 | 37.90477 | -24.47145 | 24218 ft | 261 kts | 272° |
| 2026-05-07 13:46 | 37.90383 | -24.49441 | 23880 ft | 260 kts | 272° |
| 2026-05-07 13:46 | 37.90291 | -24.51725 | 23553 ft | 260 kts | 272° |
| 2026-05-07 13:46 | 37.90198 | -24.54005 | 23175 ft | 259 kts | 272° |
| 2026-05-07 13:46 | 37.90107 | -24.56276 | 22825 ft | 258 kts | 272° |
| 2026-05-07 13:47 | 37.90016 | -24.58543 | 22487 ft | 257 kts | 272° |
| 2026-05-07 13:47 | 37.89925 | -24.60773 | 22161 ft | 257 kts | 272° |
| 2026-05-07 13:47 | 37.89830 | -24.63025 | 21834 ft | 256 kts | 271° |
| 2026-05-07 13:47 | 37.89736 | -24.65274 | 21528 ft | 255 kts | 271° |
| 2026-05-07 13:48 | 37.89643 | -24.67517 | 21205 ft | 255 kts | 271° |
| 2026-05-07 13:48 | 37.89549 | -24.69750 | 20886 ft | 254 kts | 271° |
| 2026-05-07 13:48 | 37.89453 | -24.71983 | 20560 ft | 252 kts | 272° |
| 2026-05-07 13:48 | 37.89356 | -24.74192 | 20251 ft | 251 kts | 271° |
| 2026-05-07 13:49 | 37.89260 | -24.76393 | 19942 ft | 250 kts | 271° |
| 2026-05-07 13:49 | 37.89070 | -24.78587 | 19637 ft | 253 kts | 263° |
| 2026-05-07 13:49 | 37.88466 | -24.80677 | 19306 ft | 261 kts | 250° |
| 2026-05-07 13:49 | 37.87394 | -24.82591 | 18906 ft | 274 kts | 236° |
| 2026-05-07 13:50 | 37.85893 | -24.84169 | 18489 ft | 285 kts | 225° |
| 2026-05-07 13:50 | 37.84279 | -24.85644 | 18049 ft | 288 kts | 225° |
| 2026-05-07 13:50 | 37.82649 | -24.87132 | 17596 ft | 289 kts | 225° |
| 2026-05-07 13:50 | 37.81018 | -24.88622 | 17166 ft | 290 kts | 225° |
| 2026-05-07 13:51 | 37.79385 | -24.90115 | 16764 ft | 290 kts | 225° |
| 2026-05-07 13:51 | 37.77747 | -24.91612 | 16346 ft | 291 kts | 225° |
| 2026-05-07 13:51 | 37.76129 | -24.93090 | 15949 ft | 291 kts | 225° |
| 2026-05-07 13:51 | 37.74486 | -24.94593 | 15539 ft | 292 kts | 224° |
| 2026-05-07 13:52 | 37.72840 | -24.96101 | 15133 ft | 293 kts | 224° |
| 2026-05-07 13:52 | 37.71192 | -24.97615 | 14707 ft | 293 kts | 224° |
| 2026-05-07 13:52 | 37.69541 | -24.99126 | 14311 ft | 294 kts | 224° |
| 2026-05-07 13:52 | 37.67881 | -25.00640 | 13912 ft | 295 kts | 224° |
| 2026-05-07 13:53 | 37.66219 | -25.02156 | 13487 ft | 296 kts | 224° |
| 2026-05-07 13:53 | 37.64550 | -25.03675 | 13052 ft | 295 kts | 224° |
| 2026-05-07 13:53 | 37.62906 | -25.05165 | 12642 ft | 295 kts | 224° |
| 2026-05-07 13:53 | 37.61243 | -25.06673 | 12227 ft | 294 kts | 223° |
| 2026-05-07 13:54 | 37.59586 | -25.08180 | 11807 ft | 294 kts | 223° |
| 2026-05-07 13:54 | 37.57934 | -25.09697 | 11387 ft | 292 kts | 226° |
| 2026-05-07 13:54 | 37.56654 | -25.11571 | 11015 ft | 276 kts | 248° |
| 2026-05-07 13:54 | 37.56124 | -25.13817 | 10655 ft | 264 kts | 270° |
| 2026-05-07 13:55 | 37.56345 | -25.16072 | 10278 ft | 259 kts | 290° |
| 2026-05-07 13:55 | 37.57176 | -25.18071 | 9896 ft | 258 kts | 301° |
| 2026-05-07 13:55 | 37.58108 | -25.19998 | 9493 ft | 257 kts | 301° |
| 2026-05-07 13:55 | 37.58991 | -25.21917 | 9036 ft | 257 kts | 295° |
| 2026-05-07 13:56 | 37.59665 | -25.24000 | 8629 ft | 255 kts | 292° |
| 2026-05-07 13:56 | 37.60326 | -25.26069 | 8219 ft | 254 kts | 292° |
| 2026-05-07 13:56 | 37.60988 | -25.28134 | 7817 ft | 254 kts | 292° |
| 2026-05-07 13:56 | 37.61648 | -25.30194 | 7402 ft | 253 kts | 293° |
| 2026-05-07 13:57 | 37.62310 | -25.32256 | 6970 ft | 254 kts | 293° |
| 2026-05-07 13:57 | 37.62967 | -25.34318 | 6567 ft | 253 kts | 293° |
| 2026-05-07 13:57 | 37.63617 | -25.36364 | 6178 ft | 250 kts | 294° |
| 2026-05-07 13:57 | 37.64258 | -25.38390 | 5736 ft | 248 kts | 294° |
| 2026-05-07 13:58 | 37.64884 | -25.40369 | 5310 ft | 245 kts | 294° |
| 2026-05-07 13:58 | 37.65510 | -25.42348 | 4874 ft | 239 kts | 294° |
| 2026-05-07 13:58 | 37.66101 | -25.44228 | 4437 ft | 223 kts | 294° |
| 2026-05-07 13:58 | 37.66660 | -25.45992 | 4065 ft | 209 kts | 295° |
| 2026-05-07 13:59 | 37.67186 | -25.47627 | 3770 ft | 194 kts | 296° |
| 2026-05-07 13:59 | 37.67673 | -25.49153 | 3516 ft | 182 kts | 294° |
| 2026-05-07 13:59 | 37.68134 | -25.50604 | 3270 ft | 174 kts | 295° |
| 2026-05-07 13:59 | 37.68573 | -25.51987 | 3032 ft | 166 kts | 295° |
| 2026-05-07 14:00 | 37.68980 | -25.53269 | 2842 ft | 152 kts | 295° |
| 2026-05-07 14:00 | 37.69354 | -25.54454 | 2630 ft | 139 kts | 296° |
| 2026-05-07 14:00 | 37.69704 | -25.55554 | 2457 ft | 134 kts | 297° |
| 2026-05-07 14:00 | 37.70050 | -25.56644 | 2268 ft | 133 kts | 296° |
| 2026-05-07 14:01 | 37.70385 | -25.57701 | 2096 ft | 127 kts | 296° |
| 2026-05-07 14:01 | 37.70707 | -25.58721 | 1932 ft | 122 kts | 297° |
| 2026-05-07 14:01 | 37.71019 | -25.59706 | 1757 ft | 121 kts | 298° |
| 2026-05-07 14:01 | 37.71337 | -25.60707 | 1569 ft | 128 kts | 294° |
| 2026-05-07 14:02 | 37.71662 | -25.61733 | 1404 ft | 122 kts | 294° |
| 2026-05-07 14:02 | 37.71986 | -25.62760 | 1222 ft | 127 kts | 294° |
| 2026-05-07 14:02 | 37.72302 | -25.63752 | 1059 ft | 123 kts | 294° |
| 2026-05-07 14:02 | 37.72609 | -25.64737 | 904 ft | 122 kts | 293° |
| 2026-05-07 14:03 | 37.72923 | -25.65751 | 728 ft | 121 kts | 290° |
| 2026-05-07 14:03 | 37.73237 | -25.66733 | 558 ft | 122 kts | 290° |
| 2026-05-07 14:03 | 37.73563 | -25.67742 | 377 ft | 124 kts | 290° |
| 2026-05-07 14:03 | 37.73879 | -25.68731 | 210 ft | 118 kts | 290° |
| 2026-05-07 14:04 | 37.74122 | -25.69517 | 225 ft | 59 kts | 291° |
| 2026-05-07 14:04 | 37.74248 | -25.69918 | 234 ft | 44 kts | 292° |
| 2026-05-07 14:04 | 37.74357 | -25.70210 | 245 ft | 33 kts | 308° |
| 2026-05-07 14:04 | 37.74519 | -25.70388 | 262 ft | 28 kts | 320° |
| 2026-05-07 14:05 | 37.74621 | -25.70529 | 272 ft | 18 kts | 290° |
| 2026-05-07 14:05 | 37.74658 | -25.70654 | 273 ft | 14 kts | 292° |
| 2026-05-07 14:05 | 37.74706 | -25.70803 | 272 ft | 17 kts | 291° |
| 2026-05-07 14:05 | 37.74745 | -25.70929 | 272 ft | 14 kts | 291° |
| 2026-05-07 14:06 | 37.74785 | -25.71050 | 276 ft | 21 kts | 292° |
| 2026-05-07 14:06 | 37.74838 | -25.71138 | 272 ft | 11 kts | 11° |
| 2026-05-07 14:06 | 37.74878 | -25.71116 | 263 ft | 1 kts | 25° |
| 2026-05-07 14:06 | 37.74882 | -25.71114 | 267 ft | 0 kts | 22° |